Time;durP1;ratioP1;P1;durP2;ratioP2;P2;SDS_P1;SDS_P2;PMS_P1;PMS_P2;Temp;Humidity;BMP_temperature;BMP_pressure;BME280_temperature;BME280_humidity;BME280_pressure;Samples;Min_cycle;Max_cycle;Signal;HPM_P1;HPM_P2
2022/07/08 00:01:59;;;;;;;5.60;2.30;;;14.70;99.90;;;;;;5095533;28;20048;-76
2022/07/08 00:04:25;;;;;;;7.10;2.08;;;14.70;99.90;;;;;;5095282;28;20075;-77
2022/07/08 00:06:51;;;;;;;9.25;1.55;;;14.70;99.90;;;;;;5078044;28;20436;-76
2022/07/08 00:09:18;;;;;;;14.30;1.90;;;14.70;99.90;;;;;;5094996;28;20559;-78
2022/07/08 00:11:44;;;;;;;9.73;1.83;;;14.70;99.90;;;;;;5112996;28;20073;-76
2022/07/08 00:14:10;;;;;;;6.18;1.30;;;14.60;99.90;;;;;;5095202;28;20035;-77
2022/07/08 00:16:40;;;;;;;8.13;1.83;;;14.70;99.90;;;;;;5094712;28;20043;-76
2022/07/08 00:19:07;;;;;;;5.05;2.20;;;14.60;99.90;;;;;;5094648;28;20077;-77
2022/07/08 00:21:33;;;;;;;7.95;1.98;;;14.70;99.90;;;;;;5094753;28;20417;-76
2022/07/08 00:23:58;;;;;;;10.27;2.58;;;14.60;99.90;;;;;;5094734;28;20156;-76
2022/07/08 00:26:24;;;;;;;8.85;1.90;;;14.60;99.90;;;;;;5077521;28;20499;-76
2022/07/08 00:28:50;;;;;;;8.95;1.77;;;14.60;99.90;;;;;;5094784;28;20055;-77
2022/07/08 00:31:15;;;;;;;4.50;1.45;;;14.60;99.90;;;;;;5093949;28;20533;-76
2022/07/08 00:33:41;;;;;;;10.13;1.80;;;14.60;99.90;;;;;;5094673;28;20044;-76
2022/07/08 00:36:06;;;;;;;6.25;1.40;;;14.60;99.90;;;;;;5094400;28;20047;-76
2022/07/08 00:38:32;;;;;;;5.82;1.30;;;14.50;99.90;;;;;;5094485;28;20435;-76
2022/07/08 00:40:58;;;;;;;10.32;1.42;;;14.50;99.90;;;;;;5094255;28;20044;-76
2022/07/08 00:43:35;;;;;;;8.25;1.60;;;14.50;99.90;;;;;;5094654;28;20454;-76
2022/07/08 00:46:01;;;;;;;4.50;1.38;;;14.50;99.90;;;;;;5094243;28;20048;-76
2022/07/08 00:48:27;;;;;;;9.10;1.35;;;14.40;99.90;;;;;;5112590;28;20036;-76
2022/07/08 00:50:52;;;;;;;6.22;1.42;;;14.40;99.90;;;;;;5077270;28;20036;-78
2022/07/08 00:53:18;;;;;;;5.97;2.03;;;14.40;99.90;;;;;;5112388;28;20088;-78
2022/07/08 00:55:44;;;;;;;6.28;1.20;;;14.40;99.90;;;;;;5093920;28;20092;-78
2022/07/08 00:58:11;;;;;;;6.50;1.75;;;14.40;99.90;;;;;;5094305;28;20154;-78
2022/07/08 01:00:36;;;;;;;7.97;1.38;;;14.30;99.90;;;;;;5112134;28;20114;-78
2022/07/08 01:03:02;;;;;;;6.72;1.70;;;14.20;99.90;;;;;;5093878;28;20122;-78
2022/07/08 01:05:28;;;;;;;9.93;1.73;;;14.30;99.90;;;;;;5093937;28;20047;-78
2022/07/08 01:07:53;;;;;;;4.30;1.65;;;14.30;99.90;;;;;;5093858;28;20062;-78
2022/07/08 01:10:19;;;;;;;6.90;1.38;;;14.30;99.90;;;;;;5093525;28;20406;-78
2022/07/08 01:12:45;;;;;;;7.60;1.40;;;14.30;99.90;;;;;;5094162;28;20035;-78
2022/07/08 01:15:10;;;;;;;12.15;1.80;;;14.30;99.90;;;;;;5094084;28;20047;-78
2022/07/08 01:17:43;;;;;;;9.20;1.80;;;14.30;99.90;;;;;;5093783;28;20051;-78
2022/07/08 01:20:11;;;;;;;10.48;1.85;;;14.20;99.90;;;;;;5093553;28;20066;-78
2022/07/08 01:22:36;;;;;;;6.50;1.38;;;14.10;99.90;;;;;;5093709;28;20509;-78
2022/07/08 01:25:03;;;;;;;9.63;1.50;;;14.10;99.90;;;;;;5111664;28;20114;-78
2022/07/08 01:27:28;;;;;;;8.52;1.42;;;14.10;99.90;;;;;;5093444;28;20039;-78
2022/07/08 01:29:54;;;;;;;10.60;1.40;;;14.20;99.90;;;;;;5076357;28;20371;-78
2022/07/08 01:32:20;;;;;;;8.63;1.77;;;14.10;99.90;;;;;;5093505;28;20040;-78
2022/07/08 01:34:45;;;;;;;9.23;2.08;;;14.10;99.90;;;;;;5093643;28;20036;-78
2022/07/08 01:37:11;;;;;;;4.45;1.60;;;14.20;99.90;;;;;;5093392;28;20134;-77
2022/07/08 01:39:36;;;;;;;7.45;1.40;;;14.20;99.90;;;;;;5093085;28;20410;-77
2022/07/08 01:42:02;;;;;;;7.22;2.63;;;14.20;99.90;;;;;;5093301;28;20036;-77
2022/07/08 01:44:28;;;;;;;12.27;1.63;;;14.20;99.90;;;;;;5092479;28;20391;-77
2022/07/08 01:46:53;;;;;;;6.00;1.15;;;14.10;99.90;;;;;;5093173;28;20047;-77
2022/07/08 01:49:20;;;;;;;5.10;1.67;;;14.10;99.90;;;;;;5093360;28;20114;-77
2022/07/08 01:51:46;;;;;;;5.53;1.63;;;14.10;99.90;;;;;;5092975;28;20073;-77
2022/07/08 01:54:11;;;;;;;8.60;1.60;;;14.00;99.90;;;;;;5093150;28;20117;-77
2022/07/08 01:56:37;;;;;;;7.15;2.63;;;14.00;99.90;;;;;;5093397;28;20046;-78
2022/07/08 01:59:03;;;;;;;7.13;1.15;;;13.90;99.90;;;;;;5093166;28;20035;-78
2022/07/08 02:01:28;;;;;;;9.52;1.70;;;13.80;99.90;;;;;;5092992;28;20044;-77
2022/07/08 02:03:54;;;;;;;4.97;1.27;;;13.80;99.90;;;;;;5093328;28;20501;-77
2022/07/08 02:06:19;;;;;;;7.45;1.42;;;13.80;99.90;;;;;;5092801;28;20043;-77
2022/07/08 02:08:45;;;;;;;4.43;1.30;;;13.70;99.90;;;;;;5092909;28;20036;-78
2022/07/08 02:13:54;;;;;;;4.90;1.50;;;13.50;99.90;;;;;;5092769;28;20055;-77
2022/07/08 02:16:20;;;;;;;12.15;2.05;;;13.50;99.90;;;;;;5092820;28;20043;-77
2022/07/08 02:18:45;;;;;;;8.25;1.98;;;13.40;99.90;;;;;;5093146;28;20075;-77
2022/07/08 02:21:11;;;;;;;7.80;1.73;;;13.40;99.90;;;;;;5092787;28;20044;-77
2022/07/08 02:23:37;;;;;;;4.50;1.35;;;13.40;99.90;;;;;;5076394;28;20043;-77
2022/07/08 02:26:02;;;;;;;7.30;1.52;;;13.40;99.90;;;;;;5105840;28;20047;-77
2022/07/08 02:28:28;;;;;;;8.23;1.35;;;13.30;99.90;;;;;;5115599;28;20094;-77
2022/07/08 02:30:54;;;;;;;6.22;2.30;;;13.20;99.90;;;;;;5109972;28;20047;-77
2022/07/08 02:33:19;;;;;;;4.10;1.10;;;13.20;99.90;;;;;;5093056;28;20097;-77
2022/07/08 02:35:45;;;;;;;9.40;2.47;;;13.20;99.90;;;;;;5093026;28;20051;-77
2022/07/08 02:38:10;;;;;;;5.82;1.40;;;13.30;99.90;;;;;;5092725;28;20512;-77
2022/07/08 02:40:36;;;;;;;5.38;1.20;;;13.10;99.90;;;;;;5092325;28;20048;-77
2022/07/08 02:43:01;;;;;;;11.15;1.90;;;13.10;99.90;;;;;;5093085;28;20048;-77
2022/07/08 02:45:27;;;;;;;8.90;1.38;;;13.00;99.90;;;;;;5092657;28;20529;-77
2022/07/08 02:47:53;;;;;;;3.83;1.60;;;12.90;99.90;;;;;;5092897;28;20082;-77
2022/07/08 02:50:18;;;;;;;8.00;1.73;;;12.90;99.90;;;;;;5092286;28;20515;-77
2022/07/08 02:52:44;;;;;;;7.28;1.63;;;12.90;99.90;;;;;;5092567;28;20050;-77
2022/07/08 02:55:09;;;;;;;5.90;1.58;;;12.90;99.90;;;;;;5094202;28;20044;-77
2022/07/08 02:57:35;;;;;;;12.68;2.38;;;12.90;99.90;;;;;;5114782;28;20089;-77
2022/07/08 03:00:01;;;;;;;6.20;1.33;;;12.90;99.90;;;;;;5096023;28;20122;-77
2022/07/08 03:02:26;;;;;;;4.25;1.48;;;12.90;99.90;;;;;;5096722;28;20062;-77
2022/07/08 03:04:53;;;;;;;6.63;1.63;;;12.90;99.90;;;;;;5096241;28;20031;-77
2022/07/08 03:07:19;;;;;;;6.35;2.22;;;12.80;99.90;;;;;;5096331;28;20050;-77
2022/07/08 03:09:45;;;;;;;4.32;1.02;;;12.80;99.90;;;;;;5114260;28;20035;-77
2022/07/08 03:12:10;;;;;;;10.82;1.75;;;12.70;99.90;;;;;;5096107;28;20110;-77
2022/07/08 03:14:36;;;;;;;4.32;1.67;;;12.70;99.90;;;;;;5096302;28;20039;-77
2022/07/08 03:17:01;;;;;;;5.93;1.55;;;12.60;99.90;;;;;;5096241;28;20040;-78
2022/07/08 03:19:27;;;;;;;8.75;2.22;;;12.60;99.90;;;;;;5095938;28;20048;-76
2022/07/08 03:21:53;;;;;;;4.25;1.25;;;12.60;99.90;;;;;;5095964;28;20059;-77
2022/07/08 03:24:18;;;;;;;4.90;1.40;;;12.60;99.90;;;;;;5095932;28;20050;-77
2022/07/08 03:26:44;;;;;;;5.18;1.50;;;12.50;99.90;;;;;;5095676;28;20100;-77
2022/07/08 03:29:09;;;;;;;6.43;1.52;;;12.40;99.90;;;;;;5095699;28;20043;-77
2022/07/08 03:31:35;;;;;;;8.15;1.73;;;12.50;99.90;;;;;;5095773;28;20091;-77
2022/07/08 03:34:00;;;;;;;10.57;2.25;;;12.50;99.90;;;;;;5095774;28;20490;-77
2022/07/08 03:36:26;;;;;;;8.73;1.67;;;12.40;99.90;;;;;;5095568;28;20112;-77
2022/07/08 03:38:52;;;;;;;7.60;2.08;;;12.50;99.90;;;;;;5095608;28;20043;-77
2022/07/08 03:41:20;;;;;;;8.95;1.85;;;12.60;99.90;;;;;;5113575;28;20050;-77
2022/07/08 03:43:48;;;;;;;6.88;2.92;;;12.60;99.90;;;;;;5095582;28;20119;-77
2022/07/08 03:46:13;;;;;;;7.95;2.03;;;12.60;99.90;;;;;;5095678;28;20055;-76
2022/07/08 03:48:39;;;;;;;16.55;1.63;;;12.60;99.90;;;;;;5078566;28;20422;-77
2022/07/08 03:51:05;;;;;;;2.53;1.40;;;12.70;99.90;;;;;;5095144;28;20036;-77
2022/07/08 03:53:31;;;;;;;3.88;1.42;;;12.70;99.90;;;;;;5095708;28;20083;-77
2022/07/08 03:55:57;;;;;;;8.77;2.28;;;12.70;99.90;;;;;;5095330;28;20510;-77
2022/07/08 03:58:22;;;;;;;5.55;1.50;;;12.90;99.90;;;;;;5095223;28;20410;-77
2022/07/08 04:00:48;;;;;;;5.60;1.30;;;12.90;99.90;;;;;;5094968;28;20130;-77
2022/07/08 04:03:13;;;;;;;9.38;2.08;;;12.90;99.90;;;;;;5095205;28;20410;-77
2022/07/08 04:05:39;;;;;;;6.05;2.38;;;12.90;99.90;;;;;;5095066;28;20660;-76
2022/07/08 04:08:05;;;;;;;8.40;1.77;;;12.90;99.90;;;;;;5094236;28;20043;-77
2022/07/08 04:10:31;;;;;;;10.55;2.67;;;12.90;99.90;;;;;;5094663;28;20101;-76
2022/07/08 04:12:56;;;;;;;6.15;1.75;;;12.90;99.90;;;;;;5094839;28;20486;-77
2022/07/08 04:15:22;;;;;;;9.30;1.77;;;12.90;99.90;;;;;;5094998;28;20436;-76
2022/07/08 04:17:48;;;;;;;5.07;1.50;;;12.80;99.90;;;;;;5094654;28;20104;-77
2022/07/08 04:20:13;;;;;;;8.25;1.60;;;12.80;99.90;;;;;;5094646;28;20063;-77
2022/07/08 04:22:39;;;;;;;5.40;1.48;;;12.90;99.90;;;;;;5095010;28;20123;-77
2022/07/08 04:25:06;;;;;;;8.27;1.50;;;12.80;99.90;;;;;;5094767;28;20106;-77
2022/07/08 04:27:32;;;;;;;6.90;2.28;;;12.90;99.90;;;;;;5094481;28;20071;-77
2022/07/08 04:29:58;;;;;;;13.50;2.40;;;12.90;99.90;;;;;;5094177;28;20490;-77
2022/07/08 04:32:23;;;;;;;8.20;1.50;;;12.90;99.90;;;;;;5094454;28;20040;-76
2022/07/08 04:34:51;;;;;;;3.60;1.40;;;12.90;99.90;;;;;;5094419;28;20068;-77
2022/07/08 04:37:17;;;;;;;6.70;1.48;;;12.80;99.90;;;;;;5094471;28;20050;-76
2022/07/08 04:39:43;;;;;;;7.63;1.83;;;12.80;99.90;;;;;;5094297;28;20047;-76
2022/07/08 04:42:08;;;;;;;4.03;1.73;;;12.90;99.90;;;;;;5094391;28;20075;-77
2022/07/08 04:44:34;;;;;;;7.80;1.70;;;12.90;99.90;;;;;;5094622;28;20043;-77
2022/07/08 04:47:00;;;;;;;8.07;1.50;;;13.00;99.90;;;;;;5094088;28;20490;-77
2022/07/08 04:49:25;;;;;;;7.88;1.70;;;13.00;99.90;;;;;;5094439;28;20047;-77
2022/07/08 04:51:51;;;;;;;7.72;1.70;;;13.20;99.90;;;;;;5093887;28;20510;-76
2022/07/08 04:54:17;;;;;;;9.60;2.13;;;13.40;99.90;;;;;;5094089;28;20031;-77
2022/07/08 04:56:42;;;;;;;2.90;1.30;;;13.60;99.90;;;;;;5094035;28;20047;-77
2022/07/08 04:59:08;;;;;;;5.63;2.10;;;14.00;99.90;;;;;;5094307;28;20418;-78
2022/07/08 05:01:34;;;;;;;8.23;1.70;;;14.10;99.90;;;;;;5093965;28;20550;-77
2022/07/08 05:04:00;;;;;;;8.68;2.33;;;14.30;99.90;;;;;;5094045;28;20615;-77
2022/07/08 05:06:25;;;;;;;5.30;1.35;;;14.30;99.90;;;;;;5093736;28;20043;-77
2022/07/08 05:08:51;;;;;;;7.00;1.52;;;14.30;99.90;;;;;;5093929;28;20309;-77
2022/07/08 05:11:16;;;;;;;8.85;1.95;;;14.40;99.90;;;;;;5093574;28;20067;-77
2022/07/08 05:13:42;;;;;;;9.60;2.22;;;14.40;99.90;;;;;;5093701;28;20044;-77
2022/07/08 05:16:08;;;;;;;8.30;2.17;;;14.70;99.90;;;;;;5093593;28;20118;-77
2022/07/08 05:18:33;;;;;;;9.90;2.63;;;15.00;99.90;;;;;;5094639;28;20528;-79
2022/07/08 05:20:59;;;;;;;6.43;1.48;;;15.40;99.90;;;;;;5095024;28;20126;-78
2022/07/08 05:23:25;;;;;;;4.10;1.42;;;15.80;99.90;;;;;;5094027;28;20035;-77
2022/07/08 05:25:50;;;;;;;4.65;1.10;;;16.40;99.90;;;;;;5112224;28;20040;-77
2022/07/08 05:28:16;;;;;;;7.40;1.58;;;16.80;99.90;;;;;;5093657;28;20115;-78
2022/07/08 05:30:41;;;;;;;8.88;1.77;;;16.90;99.90;;;;;;5093182;28;20042;-77
2022/07/08 05:33:07;;;;;;;5.53;1.85;;;16.70;99.90;;;;;;5092235;28;20035;-77
2022/07/08 05:35:33;;;;;;;6.82;1.45;;;16.60;99.90;;;;;;5088782;28;20452;-77
2022/07/08 05:37:58;;;;;;;5.05;1.60;;;16.50;99.90;;;;;;5076410;28;20055;-76
2022/07/08 05:40:24;;;;;;;13.57;1.90;;;16.30;99.90;;;;;;5093890;28;20043;-78
2022/07/08 05:42:50;;;;;;;11.02;1.55;;;16.30;99.90;;;;;;5089310;28;20047;-77
2022/07/08 05:45:15;;;;;;;5.07;1.13;;;16.30;99.90;;;;;;5093824;28;20059;-78
2022/07/08 05:47:41;;;;;;;4.95;1.40;;;16.30;99.90;;;;;;5092576;28;20498;-78
2022/07/08 05:50:08;;;;;;;9.05;1.70;;;16.40;99.90;;;;;;5093788;28;20275;-78
2022/07/08 05:52:33;;;;;;;4.80;1.40;;;16.50;99.90;;;;;;5092002;28;20079;-77
2022/07/08 05:54:59;;;;;;;6.68;1.40;;;16.60;99.90;;;;;;5092321;28;20075;-77
2022/07/08 05:57:25;;;;;;;5.80;1.70;;;16.60;99.90;;;;;;5093875;28;20054;-74
2022/07/08 05:59:50;;;;;;;8.10;1.35;;;16.60;99.90;;;;;;5111588;28;20039;-77
2022/07/08 06:02:17;;;;;;;11.07;1.45;;;16.50;99.90;;;;;;5072770;28;20039;-78
2022/07/08 06:04:43;;;;;;;5.95;1.58;;;16.50;99.90;;;;;;5093284;28;20039;-78
2022/07/08 06:07:08;;;;;;;7.93;1.50;;;16.50;99.90;;;;;;5092970;28;20120;-77
2022/07/08 06:09:34;;;;;;;11.10;1.75;;;16.50;99.90;;;;;;5093511;28;20118;-77
2022/07/08 06:12:00;;;;;;;9.50;1.40;;;16.50;99.90;;;;;;5091917;28;20044;-78
2022/07/08 06:14:26;;;;;;;6.97;1.92;;;16.70;99.90;;;;;;5091269;28;20119;-77
2022/07/08 06:16:51;;;;;;;5.63;1.40;;;17.40;99.90;;;;;;5091886;28;20495;-78
2022/07/08 06:19:17;;;;;;;6.22;1.30;;;18.00;99.90;;;;;;5093072;28;20035;-78
2022/07/08 06:21:43;;;;;;;7.05;1.40;;;18.50;99.90;;;;;;5093314;28;20054;-78
2022/07/08 06:24:09;;;;;;;7.05;2.20;;;18.80;99.90;;;;;;5093692;28;20123;-78
2022/07/08 06:26:36;;;;;;;7.72;1.08;;;19.30;99.90;;;;;;5077446;28;20047;-79
2022/07/08 06:29:01;;;;;;;7.45;1.40;;;19.80;99.90;;;;;;5093680;28;20039;-78
2022/07/08 06:31:27;;;;;;;5.95;1.55;;;19.90;99.90;;;;;;5097796;28;20374;-78
2022/07/08 06:33:56;;;;;;;6.75;1.42;;;19.70;99.90;;;;;;5097785;28;20032;-78
2022/07/08 06:36:26;;;;;;;8.38;1.30;;;19.60;99.90;;;;;;5097637;28;20494;-78
2022/07/08 06:38:52;;;;;;;8.98;1.45;;;19.60;99.90;;;;;;5107191;28;20414;-77
2022/07/08 06:41:19;;;;;;;8.50;1.30;;;19.60;99.90;;;;;;5091804;28;20043;-78
2022/07/08 06:43:45;;;;;;;6.28;1.08;;;19.60;99.90;;;;;;5097029;28;20043;-77
2022/07/08 06:46:11;;;;;;;9.90;1.63;;;19.50;99.90;;;;;;5095179;28;20111;-78
2022/07/08 06:48:37;;;;;;;7.53;1.70;;;19.40;99.90;;;;;;5097925;28;20035;-78
2022/07/08 06:51:02;;;;;;;13.55;2.20;;;19.20;99.90;;;;;;5096353;28;20040;-77
2022/07/08 06:54:34;;;;;;;6.18;1.00;;;19.00;99.90;;;;;;5097265;28;20046;-78
2022/07/08 06:56:14;;;;;;;8.60;1.40;;;18.80;99.90;;;;;;5094480;28;20058;-78
2022/07/08 06:58:40;;;;;;;7.80;1.65;;;18.70;99.90;;;;;;5096914;28;20066;-79
2022/07/08 07:01:05;;;;;;;8.00;1.63;;;18.50;99.90;;;;;;5096645;28;20071;-78
2022/07/08 07:03:31;;;;;;;6.43;1.70;;;18.40;99.90;;;;;;5092812;28;20046;-78
2022/07/08 07:05:56;;;;;;;3.85;1.30;;;18.40;99.90;;;;;;5074486;28;20130;-78
2022/07/08 07:08:22;;;;;;;5.18;1.40;;;18.30;99.90;;;;;;5092985;28;20047;-78
2022/07/08 07:10:48;;;;;;;7.32;1.48;;;18.40;99.90;;;;;;5094490;28;20502;-77
2022/07/08 07:13:13;;;;;;;9.73;1.70;;;18.40;99.90;;;;;;5097553;28;20104;-76
2022/07/08 07:15:39;;;;;;;3.58;1.30;;;18.30;99.90;;;;;;5096528;28;20054;-77
2022/07/08 07:18:04;;;;;;;7.28;1.38;;;18.40;99.90;;;;;;5096731;28;20054;-77
2022/07/08 07:20:30;;;;;;;7.63;1.30;;;18.30;99.90;;;;;;5096314;28;20043;-78
2022/07/08 07:22:56;;;;;;;6.10;1.70;;;18.20;99.90;;;;;;5097000;28;20042;-78
2022/07/08 07:25:21;;;;;;;7.18;1.70;;;18.30;99.90;;;;;;5089686;28;20043;-77
2022/07/08 07:27:47;;;;;;;9.93;1.35;;;18.30;99.90;;;;;;5115929;28;20024;-77
2022/07/08 07:30:13;;;;;;;13.60;2.15;;;18.30;99.90;;;;;;5104259;28;20071;-77
2022/07/08 07:32:38;;;;;;;11.45;1.75;;;18.40;99.90;;;;;;5096485;28;20126;-77
2022/07/08 07:35:04;;;;;;;9.32;2.03;;;18.60;99.90;;;;;;5096902;28;20055;-78
2022/07/08 07:37:35;;;;;;;4.80;1.42;;;18.80;99.90;;;;;;5096241;28;20031;-77
2022/07/08 07:40:03;;;;;;;7.23;1.27;;;19.00;99.90;;;;;;5096737;28;20058;-79
2022/07/08 07:42:28;;;;;;;5.32;1.27;;;19.00;99.90;;;;;;5095206;28;20118;-78
2022/07/08 07:44:54;;;;;;;8.45;1.23;;;19.00;99.90;;;;;;5096577;28;20123;-78
2022/07/08 07:47:19;;;;;;;6.32;1.75;;;19.00;99.90;;;;;;5096864;28;20402;-77
2022/07/08 07:49:45;;;;;;;6.47;1.50;;;19.10;99.90;;;;;;5096671;28;20080;-81
2022/07/08 07:52:10;;;;;;;5.22;1.90;;;19.10;99.90;;;;;;5080545;28;20042;-80
2022/07/08 07:54:36;;;;;;;11.65;2.05;;;19.10;99.90;;;;;;5097564;28;20033;-82
2022/07/08 07:57:02;;;;;;;5.75;1.95;;;19.10;99.90;;;;;;5114808;28;20124;-81
2022/07/08 07:59:28;;;;;;;4.45;1.17;;;19.00;99.90;;;;;;5079341;28;20044;-83
2022/07/08 08:01:53;;;;;;;8.10;1.70;;;18.90;99.90;;;;;;5097815;28;20127;-81
2022/07/08 08:04:19;;;;;;;7.95;1.80;;;18.90;99.90;;;;;;5096971;28;20530;-82
2022/07/08 08:06:44;;;;;;;6.20;1.48;;;18.90;99.90;;;;;;5115719;28;20075;-81
2022/07/08 08:09:10;;;;;;;7.63;2.28;;;18.90;99.90;;;;;;5114835;28;20114;-80
2022/07/08 08:11:36;;;;;;;7.93;1.52;;;19.00;99.90;;;;;;5115724;28;20075;-82
2022/07/08 08:14:01;;;;;;;5.03;1.38;;;19.00;99.90;;;;;;5079222;28;20058;-81
2022/07/08 08:16:27;;;;;;;7.55;1.50;;;19.00;99.90;;;;;;5096897;28;20043;-81
2022/07/08 08:18:52;;;;;;;7.55;1.92;;;18.90;99.90;;;;;;5116836;28;20101;-81
2022/07/08 08:21:18;;;;;;;12.20;1.85;;;18.90;99.90;;;;;;5080790;28;20106;-83
2022/07/08 08:23:44;;;;;;;9.25;1.60;;;18.90;99.90;;;;;;5096592;28;20402;-82
2022/07/08 08:26:09;;;;;;;8.27;1.70;;;18.80;99.90;;;;;;5114993;28;20043;-83
2022/07/08 08:28:35;;;;;;;9.50;1.60;;;18.80;99.90;;;;;;5115862;28;20048;-81
2022/07/08 08:31:00;;;;;;;5.38;1.50;;;19.00;99.90;;;;;;5115268;28;20039;-83
2022/07/08 08:33:26;;;;;;;8.63;2.03;;;19.10;99.90;;;;;;5095852;28;20491;-83
2022/07/08 08:35:52;;;;;;;5.30;1.27;;;19.20;99.90;;;;;;5115049;28;20047;-80
2022/07/08 08:38:17;;;;;;;9.80;2.30;;;19.30;99.90;;;;;;5098076;28;20225;-81
2022/07/08 08:40:45;;;;;;;11.00;2.47;;;19.30;99.90;;;;;;5116171;28;20128;-81
2022/07/08 08:43:12;;;;;;;9.85;1.80;;;19.40;99.90;;;;;;5113943;28;20039;-80
2022/07/08 08:45:38;;;;;;;5.80;1.55;;;19.40;99.90;;;;;;5101708;28;20044;-80
2022/07/08 08:48:07;;;;;;;4.22;1.33;;;19.50;99.90;;;;;;5095835;28;20038;-81
2022/07/08 08:50:54;;;;;;;9.80;2.10;;;19.60;99.90;;;;;;5096383;28;20116;-80
2022/07/08 08:53:38;;;;;;;6.88;1.73;;;19.70;99.90;;;;;;5075732;28;20492;-83
2022/07/08 08:56:07;;;;;;;7.28;1.38;;;19.90;99.90;;;;;;5112033;28;20043;-82
2022/07/08 08:58:33;;;;;;;6.55;1.65;;;19.90;99.90;;;;;;5095333;28;20048;-83
2022/07/08 09:00:59;;;;;;;5.22;1.20;;;20.10;99.90;;;;;;5094683;28;20043;-81
2022/07/08 09:03:25;;;;;;;6.57;1.73;;;20.20;99.90;;;;;;5093427;28;20096;-82
2022/07/08 09:05:50;;;;;;;7.03;1.83;;;20.30;99.90;;;;;;5094474;28;20039;-81
2022/07/08 09:08:16;;;;;;;5.68;1.58;;;20.40;99.90;;;;;;5113437;28;20032;-82
2022/07/08 09:10:42;;;;;;;5.97;1.42;;;20.50;99.90;;;;;;5113668;28;20078;-81
2022/07/08 09:13:14;;;;;;;9.00;1.80;;;20.60;99.90;;;;;;5087539;28;20028;-81
2022/07/08 09:15:40;;;;;;;12.98;1.67;;;20.60;99.90;;;;;;5089117;28;20039;-82
2022/07/08 09:18:09;;;;;;;7.18;2.50;;;20.60;99.90;;;;;;5085259;28;20046;-81
2022/07/08 09:21:01;;;;;;;5.35;1.20;;;20.70;99.90;;;;;;5086260;28;20056;-81
2022/07/08 09:23:32;;;;;;;5.82;1.60;;;20.70;99.90;;;;;;5071411;28;20780;-81
2022/07/08 09:26:05;;;;;;;11.27;2.10;;;20.80;99.90;;;;;;5108298;28;20557;-81
2022/07/08 09:28:32;;;;;;;6.05;2.03;;;20.80;99.90;;;;;;5087905;28;20035;-81
2022/07/08 09:31:00;;;;;;;5.72;1.80;;;20.90;99.90;;;;;;5107037;28;20135;-82
2022/07/08 09:33:26;;;;;;;6.15;1.90;;;20.90;99.90;;;;;;5104516;28;20032;-82
2022/07/08 09:35:54;;;;;;;5.60;1.48;;;20.90;99.90;;;;;;5083736;28;20049;-81
2022/07/08 09:38:21;;;;;;;6.20;1.27;;;20.90;99.90;;;;;;5101856;28;20088;-81
2022/07/08 09:40:58;;;;;;;6.97;2.42;;;20.90;99.90;;;;;;5105437;28;20039;-81
2022/07/08 09:43:24;;;;;;;8.05;1.80;;;21.00;99.90;;;;;;5081631;28;20426;-80
2022/07/08 09:45:51;;;;;;;5.50;1.52;;;21.10;99.90;;;;;;5106310;28;20050;-80
2022/07/08 09:48:16;;;;;;;9.35;1.80;;;21.10;99.90;;;;;;5093722;28;20040;-80
2022/07/08 09:50:45;;;;;;;3.42;0.90;;;21.10;99.90;;;;;;5113571;28;20039;-82
2022/07/08 09:53:29;;;;;;;7.80;1.42;;;21.20;99.90;;;;;;5095049;28;20089;-82
2022/07/08 09:55:56;;;;;;;2.63;1.08;;;21.20;99.90;;;;;;5080123;28;20060;-82
2022/07/08 09:58:26;;;;;;;6.53;1.30;;;21.30;99.90;;;;;;5081716;28;20043;-83
2022/07/08 10:00:54;;;;;;;8.50;1.83;;;21.40;99.90;;;;;;5083554;28;20534;-83
2022/07/08 10:03:21;;;;;;;3.83;1.45;;;21.50;99.90;;;;;;5099137;28;20522;-80
2022/07/08 10:05:48;;;;;;;8.93;1.85;;;21.60;99.90;;;;;;5092530;28;20047;-80
2022/07/08 10:08:15;;;;;;;7.05;1.58;;;21.60;99.90;;;;;;5099445;28;20046;-81
2022/07/08 10:10:43;;;;;;;5.30;1.55;;;21.60;99.90;;;;;;5102994;28;20036;-82
2022/07/08 10:13:09;;;;;;;7.07;1.50;;;21.80;99.90;;;;;;5121494;28;20069;-82
2022/07/08 10:15:36;;;;;;;3.45;1.35;;;22.00;99.90;;;;;;5121376;28;20035;-83
2022/07/08 10:18:11;;;;;;;4.05;1.80;;;22.20;99.90;;;;;;5100515;28;20043;-82
2022/07/08 10:20:44;;;;;;;5.30;1.40;;;22.30;99.90;;;;;;5095942;28;20039;-82
2022/07/08 10:23:15;;;;;;;4.53;1.20;;;22.40;99.90;;;;;;5084041;28;20047;-80
2022/07/08 10:25:42;;;;;;;2.50;1.00;;;22.30;99.90;;;;;;5082169;28;20040;-79
2022/07/08 10:28:14;;;;;;;6.38;1.30;;;22.40;99.90;;;;;;5120415;28;20036;-81
2022/07/08 10:30:54;;;;;;;10.00;2.17;;;22.40;99.90;;;;;;5082182;28;20040;-84
2022/07/08 10:33:25;;;;;;;7.57;1.20;;;22.30;99.90;;;;;;5076258;28;20487;-83
2022/07/08 10:36:04;;;;;;;3.93;1.40;;;22.10;99.90;;;;;;5104313;28;20048;-82
2022/07/08 10:38:33;;;;;;;5.10;1.42;;;22.00;99.90;;;;;;5102782;28;20273;-82
2022/07/08 10:41:04;;;;;;;6.00;2.05;;;21.90;99.90;;;;;;5104379;28;20043;-82
2022/07/08 10:43:30;;;;;;;5.75;1.67;;;21.70;99.90;;;;;;5088580;28;20035;-82
2022/07/08 10:46:10;;;;;;;6.15;1.83;;;21.70;99.90;;;;;;5105360;28;20039;-82
2022/07/08 10:48:39;;;;;;;6.30;1.55;;;21.60;99.90;;;;;;5101271;28;20047;-82
2022/07/08 10:51:05;;;;;;;3.72;1.65;;;21.60;99.90;;;;;;5079555;28;20468;-81
2022/07/08 10:53:52;;;;;;;7.18;1.60;;;21.80;99.90;;;;;;5106104;28;20158;-81
2022/07/08 10:56:49;;;;;;;8.75;1.80;;;22.00;99.90;;;;;;5094896;28;20051;-83
2022/07/08 10:59:19;;;;;;;8.57;1.73;;;22.20;99.90;;;;;;5085208;28;20051;-82
2022/07/08 11:02:04;;;;;;;4.07;1.48;;;22.10;99.90;;;;;;5087974;28;20081;-82
2022/07/08 11:04:33;;;;;;;3.45;1.60;;;22.00;99.90;;;;;;5075832;28;20032;-82
2022/07/08 11:07:17;;;;;;;5.57;1.33;;;21.80;99.90;;;;;;5097671;28;20043;-82
2022/07/08 11:10:06;;;;;;;7.13;1.27;;;21.70;99.90;;;;;;5082693;28;20510;-81
2022/07/08 11:12:33;;;;;;;6.20;1.75;;;21.70;99.90;;;;;;5096992;28;20050;-82
2022/07/08 11:15:00;;;;;;;6.63;1.98;;;21.60;99.90;;;;;;5099532;28;20035;-83
2022/07/08 11:17:31;;;;;;;7.63;1.90;;;21.60;99.90;;;;;;5112064;28;20067;-82
2022/07/08 11:19:59;;;;;;;3.70;1.53;;;21.70;99.90;;;;;;5104030;28;20036;-83
2022/07/08 11:22:27;;;;;;;7.97;1.85;;;21.80;99.90;;;;;;5083928;28;20288;-81
2022/07/08 11:24:57;;;;;;;7.45;1.40;;;22.10;99.90;;;;;;5080714;28;20118;-82
2022/07/08 11:27:28;;;;;;;7.10;2.15;;;22.30;99.90;;;;;;5069273;28;20460;-79
2022/07/08 11:29:55;;;;;;;;;;;22.60;99.90;;;;;;5097768;28;20039;-80
2022/07/08 11:32:22;;;;;;;10.02;1.63;;;22.70;99.90;;;;;;5095357;28;19922;-76
2022/07/08 11:34:48;;;;;;;5.53;1.80;;;22.80;99.90;;;;;;5096288;28;20035;-77
2022/07/08 11:37:14;;;;;;;8.07;3.20;;;22.70;99.90;;;;;;5096195;28;20726;-77
2022/07/08 11:39:42;;;;;;;6.10;1.88;;;22.50;99.90;;;;;;5095862;28;20123;-78
2022/07/08 11:42:09;;;;;;;5.97;1.60;;;22.50;99.90;;;;;;5096122;28;20066;-77
2022/07/08 11:44:35;;;;;;;6.32;1.77;;;22.60;99.90;;;;;;5096481;28;20169;-76
2022/07/08 11:47:00;;;;;;;6.18;1.85;;;22.60;99.90;;;;;;5114129;28;20044;-78
2022/07/08 11:49:26;;;;;;;8.63;2.20;;;22.80;99.90;;;;;;5114330;28;20491;-83
2022/07/08 11:51:53;;;;;;;3.45;1.27;;;22.90;99.90;;;;;;5095873;28;20173;-79
2022/07/08 11:54:21;;;;;;;6.00;1.75;;;23.10;99.90;;;;;;5114447;28;20044;-76
2022/07/08 11:56:51;;;;;;;10.50;2.47;;;23.30;99.90;;;;;;5095838;28;20547;-77
2022/07/08 11:59:29;;;;;;;4.85;1.58;;;23.60;99.90;;;;;;5095739;28;20395;-77
2022/07/08 12:01:57;;;;;;;5.25;1.92;;;23.60;99.90;;;;;;5095688;28;20048;-76
2022/07/08 12:04:23;;;;;;;4.95;1.73;;;23.70;99.90;;;;;;5114015;28;20161;-77
2022/07/08 12:06:51;;;;;;;10.85;2.00;;;23.70;99.90;;;;;;5113777;28;20096;-77
2022/07/08 12:09:18;;;;;;;5.03;1.42;;;23.60;99.90;;;;;;5113872;28;20395;-78
2022/07/08 12:11:46;;;;;;;4.07;1.50;;;23.50;99.90;;;;;;5096639;28;20031;-77
2022/07/08 12:14:12;;;;;;;8.90;1.70;;;23.50;99.90;;;;;;5095461;28;20096;-78
2022/07/08 12:16:44;;;;;;;4.55;1.52;;;23.50;99.90;;;;;;5095694;28;20036;-79
2022/07/08 12:19:26;;;;;;;11.43;2.10;;;23.50;99.90;;;;;;5095454;28;20047;-77
2022/07/08 12:21:53;;;;;;;4.72;1.63;;;23.60;99.90;;;;;;5095321;28;20035;-76
2022/07/08 12:24:27;;;;;;;4.68;1.67;;;23.50;99.90;;;;;;5095411;28;20055;-79
2022/07/08 12:26:57;;;;;;;4.15;1.58;;;23.30;99.90;;;;;;5095015;28;20445;-79
2022/07/08 12:29:28;;;;;;;6.15;1.50;;;23.10;99.90;;;;;;5094881;28;20039;-78
2022/07/08 12:31:54;;;;;;;6.22;1.80;;;23.10;99.90;;;;;;5095069;28;20127;-77
2022/07/08 12:34:21;;;;;;;4.13;1.70;;;23.20;99.90;;;;;;5095479;28;20044;-76
2022/07/08 12:36:48;;;;;;;6.35;1.85;;;23.20;99.90;;;;;;5095276;28;20067;-78
2022/07/08 12:39:20;;;;;;;3.83;1.52;;;23.20;99.90;;;;;;5078208;28;20039;-77
2022/07/08 12:42:05;;;;;;;4.85;1.52;;;23.30;99.90;;;;;;5094697;28;20075;-76
2022/07/08 12:44:35;;;;;;;4.95;1.55;;;23.60;99.90;;;;;;5094980;28;20101;-77
2022/07/08 12:47:03;;;;;;;5.65;2.10;;;23.70;99.90;;;;;;5094793;28;20050;-78
2022/07/08 12:49:32;;;;;;;4.18;1.50;;;23.70;99.90;;;;;;5094809;28;20432;-81